Wetterdaten: Woche 16.06.08 - 22.06.08 (KW25)
Datum Zeit Temperatur Luftfeuchte Luftdruck Niederschlag Wind Richtung Sonnenschein Solar Taupunkt Windchill Windben
16.06.2008 00:00 11.4 C 97 % 1010.2 hPa 0.2 l/m 1.0 km/h (0 Bft) S-SO 0.00 h 0 W/m 11.0 C 11.4 C 2.5 km/h (1 Bft)
16.06.2008 01:00 11.1 C 97 % 1010.1 hPa 0.2 l/m 0.3 km/h (0 Bft) S-SO 0.00 h 0 W/m 10.7 C 11.1 C 1.0 km/h (0 Bft)
16.06.2008 02:00 10.8 C 96 % 1010.1 hPa 0.0 l/m 0.3 km/h (0 Bft) W 0.00 h 0 W/m 10.2 C 10.8 C 1.6 km/h (1 Bft)
16.06.2008 03:00 10.5 C 97 % 1009.9 hPa 0.0 l/m 0.1 km/h (0 Bft) W-SW 0.00 h 0 W/m 10.0 C 10.5 C 0.9 km/h (0 Bft)
16.06.2008 04:00 10.4 C 99 % 1009.7 hPa 0.0 l/m 0.1 km/h (0 Bft) W-SW 0.00 h 0 W/m 10.2 C 10.4 C 0.7 km/h (0 Bft)
16.06.2008 05:00 10.3 C 99 % 1009.6 hPa 0.4 l/m 0.6 km/h (0 Bft) S-SO 0.00 h 8 W/m 10.2 C 10.3 C 1.7 km/h (1 Bft)
16.06.2008 06:00 10.5 C 99 % 1009.8 hPa 0.2 l/m 0.0 km/h (0 Bft) N 0.00 h 27 W/m 10.4 C 10.5 C 0.1 km/h (0 Bft)
16.06.2008 07:00 11.0 C 99 % 1009.8 hPa 0.2 l/m 0.0 km/h (0 Bft) N 0.00 h 62 W/m 10.9 C 11.0 C 0.2 km/h (0 Bft)
16.06.2008 08:00 11.6 C 100 % 1010.0 hPa 0.0 l/m 0.5 km/h (0 Bft) S-SO 0.00 h 156 W/m 11.6 C 11.6 C 1.8 km/h (1 Bft)
16.06.2008 09:00 11.9 C 98 % 1010.1 hPa 0.2 l/m 0.3 km/h (0 Bft) S 0.00 h 219 W/m 11.6 C 11.9 C 1.5 km/h (1 Bft)
16.06.2008 10:00 12.7 C 93 % 1010.0 hPa 0.0 l/m 0.9 km/h (0 Bft) S 0.00 h 301 W/m 11.6 C 12.7 C 2.5 km/h (1 Bft)
16.06.2008 11:00 13.6 C 87 % 1009.9 hPa 0.0 l/m 0.6 km/h (0 Bft) S-SW 0.02 h 369 W/m 11.5 C 13.6 C 2.2 km/h (1 Bft)
16.06.2008 12:00 14.4 C 85 % 1009.9 hPa 0.0 l/m 1.8 km/h (1 Bft) W 0.20 h 443 W/m 11.8 C 14.4 C 4.1 km/h (1 Bft)
16.06.2008 13:00 14.8 C 78 % 1009.6 hPa 0.0 l/m 1.3 km/h (1 Bft) S-SO 0.03 h 379 W/m 11.1 C 14.8 C 3.8 km/h (1 Bft)
16.06.2008 14:00 14.8 C 81 % 1009.6 hPa 0.0 l/m 1.7 km/h (1 Bft) W 0.00 h 328 W/m 11.5 C 14.8 C 3.8 km/h (1 Bft)
16.06.2008 15:00 15.2 C 82 % 1009.5 hPa 0.0 l/m 0.7 km/h (0 Bft) W 0.00 h 313 W/m 12.1 C 15.2 C 1.9 km/h (1 Bft)
16.06.2008 16:00 15.1 C 80 % 1009.1 hPa 0.2 l/m 0.5 km/h (0 Bft) W 0.00 h 245 W/m 11.6 C 15.1 C 1.9 km/h (1 Bft)
16.06.2008 17:00 15.3 C 76 % 1009.0 hPa 0.0 l/m 0.5 km/h (0 Bft) S-SO 0.00 h 218 W/m 11.2 C 15.3 C 2.1 km/h (1 Bft)
16.06.2008 18:00 15.0 C 80 % 1008.9 hPa 0.0 l/m 0.2 km/h (0 Bft) S-SO 0.00 h 121 W/m 11.6 C 15.0 C 1.4 km/h (1 Bft)
16.06.2008 19:00 14.3 C 89 % 1009.0 hPa 0.2 l/m 0.0 km/h (0 Bft) S-SO 0.00 h 65 W/m 12.5 C 14.3 C 0.3 km/h (0 Bft)
16.06.2008 20:00 13.6 C 95 % 1009.4 hPa 0.8 l/m 0.1 km/h (0 Bft) S-SO 0.00 h 16 W/m 12.8 C 13.6 C 0.4 km/h (0 Bft)
16.06.2008 21:00 13.1 C 96 % 1009.6 hPa 0.2 l/m 0.3 km/h (0 Bft) S-SO 0.00 h 6 W/m 12.6 C 13.1 C 1.4 km/h (1 Bft)
16.06.2008 22:00 12.7 C 97 % 1009.9 hPa 0.0 l/m 3.1 km/h (1 Bft) O-SO 0.00 h 0 W/m 12.1 C 12.7 C 5.0 km/h (1 Bft)
16.06.2008 23:00 12.4 C 96 % 1009.8 hPa 0.0 l/m 0.8 km/h (0 Bft) O-SO 0.00 h 0 W/m 11.8 C 12.4 C 1.4 km/h (1 Bft)
17.06.2008 00:00 12.3 C 95 % 1009.7 hPa 0.0 l/m 0.1 km/h (0 Bft) O-SO 0.00 h 0 W/m 11.5 C 12.3 C 0.7 km/h (0 Bft)
17.06.2008 01:00 12.1 C 96 % 1009.7 hPa 0.0 l/m 0.0 km/h (0 Bft) O-SO 0.00 h 0 W/m 11.4 C 12.1 C 0.3 km/h (0 Bft)
17.06.2008 02:00 12.1 C 96 % 1009.5 hPa 0.4 l/m 0.0 km/h (0 Bft) N 0.00 h 0 W/m 11.4 C 12.1 C 0.2 km/h (0 Bft)
17.06.2008 03:00 11.9 C 98 % 1009.3 hPa 0.0 l/m 0.0 km/h (0 Bft) N 0.00 h 0 W/m 11.7 C 11.9 C 0.0 km/h (0 Bft)
17.06.2008 04:00 11.9 C 100 % 1009.2 hPa 0.0 l/m 0.0 km/h (0 Bft) N 0.00 h 0 W/m 11.9 C 11.9 C 0.0 km/h (0 Bft)
17.06.2008 05:00 12.0 C 100 % 1009.2 hPa 0.2 l/m 0.0 km/h (0 Bft) N 0.00 h 6 W/m 12.0 C 12.0 C 0.1 km/h (0 Bft)
17.06.2008 06:00 12.1 C 100 % 1009.8 hPa 0.2 l/m 0.0 km/h (0 Bft) N 0.00 h 27 W/m 12.1 C 12.1 C 0.0 km/h (0 Bft)
17.06.2008 07:00 12.3 C 98 % 1010.2 hPa 0.0 l/m 0.1 km/h (0 Bft) O-SO 0.00 h 56 W/m 12.0 C 12.3 C 0.8 km/h (0 Bft)
17.06.2008 08:00 12.7 C 95 % 1010.6 hPa 0.0 l/m 0.2 km/h (0 Bft) O-SO 0.00 h 85 W/m 11.8 C 12.7 C 1.1 km/h (0 Bft)
17.06.2008 09:00 13.2 C 93 % 1011.0 hPa 0.0 l/m 0.9 km/h (0 Bft) O-SO 0.00 h 153 W/m 12.0 C 13.2 C 2.6 km/h (1 Bft)
17.06.2008 10:00 13.5 C 92 % 1011.0 hPa 0.0 l/m 1.0 km/h (0 Bft) O-SO 0.00 h 155 W/m 12.3 C 13.5 C 2.5 km/h (1 Bft)
17.06.2008 11:00 14.3 C 91 % 1011.4 hPa 0.0 l/m 0.8 km/h (0 Bft) W 0.00 h 277 W/m 12.9 C 14.3 C 2.2 km/h (1 Bft)
17.06.2008 12:00 15.0 C 90 % 1011.5 hPa 0.0 l/m 0.9 km/h (0 Bft) W 0.00 h 305 W/m 13.3 C 15.0 C 2.3 km/h (1 Bft)
17.06.2008 13:00 16.2 C 84 % 1011.4 hPa 0.0 l/m 1.4 km/h (1 Bft) SO 0.42 h 424 W/m 13.4 C 16.2 C 3.2 km/h (1 Bft)
17.06.2008 14:00 17.8 C 79 % 1011.2 hPa 0.0 l/m 1.2 km/h (1 Bft) O-SO 0.43 h 461 W/m 14.1 C 17.8 C 3.0 km/h (1 Bft)
17.06.2008 15:00 18.1 C 76 % 1011.0 hPa 0.0 l/m 0.9 km/h (0 Bft) O-SO 0.00 h 316 W/m 13.7 C 18.1 C 2.4 km/h (1 Bft)
17.06.2008 16:00 17.6 C 82 % 1010.8 hPa 0.4 l/m 0.7 km/h (0 Bft) NO 0.00 h 109 W/m 14.4 C 17.6 C 2.4 km/h (1 Bft)
17.06.2008 17:00 16.4 C 94 % 1011.3 hPa 2.2 l/m 0.0 km/h (0 Bft) NO 0.00 h 108 W/m 15.4 C 16.4 C 0.6 km/h (0 Bft)
17.06.2008 18:00 16.1 C 98 % 1011.5 hPa 0.0 l/m 0.1 km/h (0 Bft) NO 0.00 h 107 W/m 15.7 C 16.1 C 0.3 km/h (0 Bft)
17.06.2008 19:00 16.3 C 98 % 1011.7 hPa 0.0 l/m 0.2 km/h (0 Bft) NO 0.00 h 95 W/m 15.9 C 16.3 C 0.7 km/h (0 Bft)
17.06.2008 20:00 16.1 C 97 % 1011.8 hPa 0.0 l/m 0.3 km/h (0 Bft) NO 0.00 h 27 W/m 15.6 C 16.1 C 0.7 km/h (0 Bft)
17.06.2008 21:00 15.8 C 97 % 1012.6 hPa 0.0 l/m 0.4 km/h (0 Bft) NO 0.00 h 5 W/m 15.3 C 15.8 C 0.6 km/h (0 Bft)
17.06.2008 22:00 15.2 C 99 % 1013.3 hPa 0.0 l/m 0.3 km/h (0 Bft) NO 0.00 h 0 W/m 15.0 C 15.2 C 0.9 km/h (0 Bft)
17.06.2008 23:00 14.8 C 100 % 1013.9 hPa 0.0 l/m 0.2 km/h (0 Bft) O 0.00 h 0 W/m 14.8 C 14.8 C 0.9 km/h (0 Bft)
18.06.2008 00:00 14.6 C 100 % 1014.3 hPa 0.0 l/m 0.1 km/h (0 Bft) O 0.00 h 0 W/m 14.6 C 14.6 C 0.3 km/h (0 Bft)
18.06.2008 01:00 14.3 C 100 % 1014.5 hPa 0.0 l/m 0.5 km/h (0 Bft) O 0.00 h 0 W/m 14.3 C 14.3 C 1.1 km/h (0 Bft)
18.06.2008 02:00 14.3 C 100 % 1014.5 hPa 0.0 l/m 0.5 km/h (0 Bft) W-NW 0.00 h 0 W/m 14.3 C 14.3 C 1.5 km/h (1 Bft)
18.06.2008 03:00 14.3 C 99 % 1014.8 hPa 0.0 l/m 0.3 km/h (0 Bft) S-SW 0.00 h 0 W/m 14.2 C 14.3 C 1.2 km/h (1 Bft)
18.06.2008 04:00 14.2 C 99 % 1015.1 hPa 0.2 l/m 0.5 km/h (0 Bft) SW 0.00 h 0 W/m 14.1 C 14.2 C 1.8 km/h (1 Bft)
18.06.2008 05:00 14.3 C 99 % 1015.6 hPa 0.0 l/m 0.2 km/h (0 Bft) W-SW 0.00 h 7 W/m 14.0 C 14.3 C 1.0 km/h (0 Bft)
18.06.2008 06:00 14.4 C 98 % 1016.0 hPa 0.0 l/m 1.8 km/h (1 Bft) SW 0.00 h 33 W/m 14.1 C 14.4 C 3.9 km/h (1 Bft)
18.06.2008 07:00 14.8 C 96 % 1016.4 hPa 0.0 l/m 0.1 km/h (0 Bft) SW 0.00 h 80 W/m 14.2 C 14.8 C 0.9 km/h (0 Bft)
18.06.2008 08:00 15.2 C 94 % 1017.0 hPa 0.0 l/m 2.1 km/h (1 Bft) W-SW 0.03 h 174 W/m 14.2 C 15.2 C 4.1 km/h (1 Bft)
18.06.2008 09:00 17.2 C 83 % 1017.2 hPa 0.0 l/m 0.9 km/h (0 Bft) W 0.75 h 509 W/m 14.3 C 17.2 C 2.4 km/h (1 Bft)
18.06.2008 10:00 17.7 C 78 % 1017.4 hPa 0.0 l/m 0.9 km/h (0 Bft) O-SO 0.32 h 401 W/m 13.7 C 17.7 C 2.1 km/h (1 Bft)
18.06.2008 11:00 19.8 C 70 % 1016.9 hPa 0.0 l/m 2.8 km/h (1 Bft) W-NW 0.95 h 790 W/m 14.1 C 19.8 C 4.8 km/h (1 Bft)
18.06.2008 12:00 21.2 C 58 % 1016.8 hPa 0.0 l/m 3.3 km/h (1 Bft) W 1.00 h 876 W/m 12.4 C 21.2 C 5.8 km/h (2 Bft)
18.06.2008 13:00 22.3 C 51 % 1016.3 hPa 0.0 l/m 3.3 km/h (1 Bft) O-SO 1.00 h 912 W/m 11.6 C 22.3 C 6.2 km/h (2 Bft)
18.06.2008 14:00 22.7 C 50 % 1016.2 hPa 0.0 l/m 3.0 km/h (1 Bft) SO 0.88 h 832 W/m 11.7 C 22.7 C 5.8 km/h (2 Bft)
18.06.2008 15:00 23.6 C 46 % 1015.7 hPa 0.0 l/m 3.1 km/h (1 Bft) O-SO 0.95 h 786 W/m 11.3 C 23.6 C 6.0 km/h (2 Bft)
18.06.2008 16:00 24.5 C 43 % 1015.3 hPa 0.0 l/m 3.1 km/h (1 Bft) W 1.00 h 698 W/m 11.0 C 24.5 C 5.6 km/h (1 Bft)
18.06.2008 17:00 24.9 C 41 % 1014.7 hPa 0.0 l/m 3.2 km/h (1 Bft) W 1.00 h 552 W/m 10.8 C 24.9 C 5.4 km/h (1 Bft)
18.06.2008 18:00 24.6 C 40 % 1014.4 hPa 0.0 l/m 2.5 km/h (1 Bft) W 1.00 h 372 W/m 10.1 C 24.6 C 4.4 km/h (1 Bft)
18.06.2008 19:00 23.5 C 43 % 1014.3 hPa 0.0 l/m 0.8 km/h (0 Bft) O-SO 1.00 h 212 W/m 10.0 C 23.5 C 2.2 km/h (1 Bft)
18.06.2008 20:00 21.2 C 55 % 1014.5 hPa 0.0 l/m 1.6 km/h (1 Bft) O-SO 0.00 h 36 W/m 11.8 C 21.2 C 2.8 km/h (1 Bft)
18.06.2008 21:00 18.3 C 71 % 1014.8 hPa 0.0 l/m 2.3 km/h (1 Bft) O-SO 0.00 h 9 W/m 12.9 C 18.3 C 3.2 km/h (1 Bft)
18.06.2008 22:00 16.6 C 77 % 1015.2 hPa 0.0 l/m 1.0 km/h (0 Bft) O-SO 0.00 h 0 W/m 12.6 C 16.6 C 1.8 km/h (1 Bft)
18.06.2008 23:00 15.1 C 83 % 1015.4 hPa 0.0 l/m 1.2 km/h (1 Bft) O-SO 0.00 h 0 W/m 12.1 C 15.1 C 2.3 km/h (1 Bft)
19.06.2008 00:00 14.1 C 86 % 1015.3 hPa 0.0 l/m 0.7 km/h (0 Bft) O-SO 0.00 h 0 W/m 11.7 C 14.1 C 1.5 km/h (1 Bft)
19.06.2008 01:00 13.3 C 88 % 1015.3 hPa 0.0 l/m 1.3 km/h (1 Bft) O-SO 0.00 h 0 W/m 11.4 C 13.3 C 2.5 km/h (1 Bft)
19.06.2008 02:00 12.5 C 91 % 1015.2 hPa 0.0 l/m 0.7 km/h (0 Bft) O-SO 0.00 h 0 W/m 11.1 C 12.5 C 1.9 km/h (1 Bft)
19.06.2008 03:00 12.1 C 93 % 1015.2 hPa 0.0 l/m 1.0 km/h (0 Bft) O 0.00 h 0 W/m 11.0 C 12.1 C 2.0 km/h (1 Bft)
19.06.2008 04:00 11.8 C 94 % 1015.4 hPa 0.0 l/m 1.4 km/h (1 Bft) O 0.00 h 0 W/m 10.8 C 11.8 C 2.5 km/h (1 Bft)
19.06.2008 05:00 11.3 C 96 % 1015.6 hPa 0.0 l/m 0.5 km/h (0 Bft) O-SO 0.00 h 9 W/m 10.6 C 11.3 C 1.2 km/h (1 Bft)
19.06.2008 06:00 11.4 C 97 % 1016.2 hPa 0.0 l/m 0.0 km/h (0 Bft) N 0.18 h 46 W/m 10.9 C 11.4 C 0.1 km/h (0 Bft)
19.06.2008 07:00 13.5 C 91 % 1016.3 hPa 0.0 l/m 0.4 km/h (0 Bft) O-SO 0.93 h 221 W/m 12.1 C 13.5 C 1.0 km/h (0 Bft)
19.06.2008 08:00 16.0 C 83 % 1016.3 hPa 0.0 l/m 1.0 km/h (0 Bft) O-SO 0.73 h 301 W/m 13.2 C 16.0 C 2.4 km/h (1 Bft)
19.06.2008 09:00 18.0 C 79 % 1016.5 hPa 0.0 l/m 0.8 km/h (0 Bft) O 0.73 h 453 W/m 14.2 C 18.0 C 2.2 km/h (1 Bft)
19.06.2008 10:00 20.9 C 63 % 1016.6 hPa 0.0 l/m 7.6 km/h (2 Bft) W 0.97 h 660 W/m 13.6 C 20.9 C 12.8 km/h (3 Bft)
19.06.2008 11:00 22.0 C 57 % 1016.7 hPa 0.0 l/m 9.6 km/h (2 Bft) W 1.00 h 801 W/m 13.0 C 22.0 C 16.1 km/h (3 Bft)
19.06.2008 12:00 22.7 C 54 % 1016.4 hPa 0.0 l/m 10.3 km/h (2 Bft) W 0.78 h 756 W/m 12.9 C 22.7 C 16.6 km/h (3 Bft)
19.06.2008 13:00 23.8 C 51 % 1016.1 hPa 0.0 l/m 7.8 km/h (2 Bft) W 0.97 h 845 W/m 13.2 C 23.8 C 12.9 km/h (3 Bft)
19.06.2008 14:00 25.0 C 49 % 1015.6 hPa 0.0 l/m 10.1 km/h (2 Bft) W 1.00 h 829 W/m 13.4 C 25.0 C 16.2 km/h (3 Bft)
19.06.2008 15:00 25.5 C 47 % 1015.6 hPa 0.0 l/m 10.8 km/h (2 Bft) W 1.00 h 754 W/m 13.3 C 25.5 C 16.9 km/h (3 Bft)
19.06.2008 16:00 26.3 C 45 % 1015.5 hPa 0.0 l/m 10.8 km/h (2 Bft) W 0.92 h 694 W/m 13.3 C 26.3 C 17.4 km/h (3 Bft)
19.06.2008 17:00 25.4 C 45 % 1015.5 hPa 0.0 l/m 10.5 km/h (2 Bft) W-NW 1.00 h 410 W/m 12.5 C 25.4 C 16.9 km/h (3 Bft)
19.06.2008 18:00 24.2 C 44 % 1015.7 hPa 0.0 l/m 11.9 km/h (2 Bft) W-NW 0.57 h 251 W/m 11.3 C 24.2 C 18.8 km/h (3 Bft)
19.06.2008 19:00 23.8 C 44 % 1015.6 hPa 0.0 l/m 14.0 km/h (3 Bft) W 1.00 h 223 W/m 10.7 C 23.8 C 21.8 km/h (4 Bft)
19.06.2008 20:00 23.0 C 47 % 1016.0 hPa 0.0 l/m 9.1 km/h (2 Bft) W-NW 0.57 h 79 W/m 11.1 C 23.0 C 13.8 km/h (3 Bft)
19.06.2008 21:00 21.1 C 54 % 1016.5 hPa 0.0 l/m 6.9 km/h (2 Bft) W 0.00 h 7 W/m 11.4 C 21.1 C 9.9 km/h (2 Bft)
19.06.2008 22:00 19.7 C 62 % 1017.2 hPa 0.0 l/m 1.9 km/h (1 Bft) W-NW 0.00 h 0 W/m 12.1 C 19.7 C 3.5 km/h (1 Bft)
19.06.2008 23:00 19.1 C 64 % 1017.6 hPa 0.0 l/m 3.2 km/h (1 Bft) W 0.00 h 0 W/m 12.1 C 19.1 C 5.7 km/h (1 Bft)
20.06.2008 00:00 19.6 C 60 % 1017.9 hPa 0.0 l/m 5.9 km/h (2 Bft) W 0.00 h 0 W/m 11.7 C 19.6 C 9.6 km/h (2 Bft)
20.06.2008 01:00 18.3 C 67 % 1018.1 hPa 0.0 l/m 0.8 km/h (0 Bft) W-SW 0.00 h 0 W/m 12.0 C 18.3 C 2.3 km/h (1 Bft)
20.06.2008 02:00 16.9 C 74 % 1018.6 hPa 0.0 l/m 2.2 km/h (1 Bft) O-SO 0.00 h 0 W/m 12.3 C 16.9 C 3.7 km/h (1 Bft)
20.06.2008 03:00 17.4 C 71 % 1018.5 hPa 0.0 l/m 1.0 km/h (0 Bft) W-SW 0.00 h 0 W/m 12.0 C 17.4 C 3.0 km/h (1 Bft)
20.06.2008 04:00 16.9 C 75 % 1018.5 hPa 0.0 l/m 1.7 km/h (1 Bft) SO 0.00 h 0 W/m 12.4 C 16.9 C 3.0 km/h (1 Bft)
20.06.2008 05:00 16.6 C 75 % 1018.8 hPa 0.0 l/m 2.2 km/h (1 Bft) SO 0.05 h 10 W/m 12.1 C 16.6 C 3.8 km/h (1 Bft)
20.06.2008 06:00 16.9 C 77 % 1019.2 hPa 0.0 l/m 1.4 km/h (1 Bft) SO 0.00 h 40 W/m 12.8 C 16.9 C 2.9 km/h (1 Bft)
20.06.2008 07:00 17.6 C 75 % 1019.6 hPa 0.0 l/m 0.5 km/h (0 Bft) NW 0.00 h 103 W/m 13.2 C 17.6 C 1.7 km/h (1 Bft)
20.06.2008 08:00 18.6 C 74 % 1019.9 hPa 0.0 l/m 0.8 km/h (0 Bft) NW 0.40 h 264 W/m 13.9 C 18.6 C 2.2 km/h (1 Bft)
20.06.2008 09:00 20.0 C 72 % 1020.1 hPa 0.0 l/m 3.2 km/h (1 Bft) W 0.60 h 402 W/m 14.8 C 20.0 C 5.6 km/h (1 Bft)
20.06.2008 10:00 21.7 C 65 % 1020.0 hPa 0.0 l/m 4.6 km/h (1 Bft) W-SW 1.00 h 627 W/m 14.8 C 21.7 C 8.1 km/h (2 Bft)
20.06.2008 11:00 23.2 C 58 % 1019.6 hPa 0.0 l/m 7.2 km/h (2 Bft) W 1.00 h 755 W/m 14.5 C 23.2 C 11.9 km/h (2 Bft)
20.06.2008 12:00 23.8 C 56 % 1019.5 hPa 0.0 l/m 8.3 km/h (2 Bft) W 0.93 h 850 W/m 14.5 C 23.8 C 13.5 km/h (3 Bft)
20.06.2008 13:00 24.8 C 53 % 1019.1 hPa 0.0 l/m 8.8 km/h (2 Bft) W 0.97 h 881 W/m 14.6 C 24.8 C 14.4 km/h (3 Bft)
20.06.2008 14:00 25.5 C 53 % 1018.8 hPa 0.0 l/m 9.2 km/h (2 Bft) W 1.00 h 921 W/m 15.1 C 25.5 C 15.0 km/h (3 Bft)
20.06.2008 15:00 25.9 C 51 % 1018.4 hPa 0.0 l/m 10.8 km/h (2 Bft) W 1.00 h 789 W/m 14.9 C 25.9 C 17.2 km/h (3 Bft)
20.06.2008 16:00 26.0 C 49 % 1018.1 hPa 0.0 l/m 11.2 km/h (2 Bft) W 0.92 h 638 W/m 14.6 C 26.0 C 17.0 km/h (3 Bft)
20.06.2008 17:00 26.1 C 48 % 1018.2 hPa 0.0 l/m 11.5 km/h (2 Bft) W-NW 1.00 h 544 W/m 14.3 C 26.1 C 18.0 km/h (3 Bft)
20.06.2008 18:00 25.7 C 49 % 1018.2 hPa 0.0 l/m 9.0 km/h (2 Bft) W 0.97 h 355 W/m 14.2 C 25.7 C 14.4 km/h (3 Bft)
20.06.2008 19:00 24.7 C 52 % 1018.1 hPa 0.0 l/m 7.8 km/h (2 Bft) W-NW 0.77 h 182 W/m 14.1 C 24.7 C 12.3 km/h (3 Bft)
20.06.2008 20:00 23.0 C 55 % 1018.4 hPa 0.0 l/m 3.2 km/h (1 Bft) W 0.52 h 66 W/m 13.4 C 23.0 C 5.9 km/h (2 Bft)
20.06.2008 21:00 21.3 C 59 % 1018.7 hPa 0.0 l/m 0.4 km/h (0 Bft) S 0.05 h 12 W/m 13.0 C 21.3 C 1.6 km/h (1 Bft)
20.06.2008 22:00 19.2 C 68 % 1019.4 hPa 0.0 l/m 2.3 km/h (1 Bft) O-SO 0.00 h 0 W/m 13.2 C 19.2 C 3.5 km/h (1 Bft)
20.06.2008 23:00 17.6 C 76 % 1019.9 hPa 0.0 l/m 1.3 km/h (1 Bft) O-SO 0.00 h 0 W/m 13.2 C 17.6 C 2.4 km/h (1 Bft)
21.06.2008 00:00 16.6 C 81 % 1020.0 hPa 0.0 l/m 0.1 km/h (0 Bft) O-SO 0.00 h 0 W/m 13.3 C 16.6 C 0.4 km/h (0 Bft)
21.06.2008 01:00 16.2 C 85 % 1019.9 hPa 0.0 l/m 0.5 km/h (0 Bft) O-SO 0.00 h 0 W/m 13.6 C 16.2 C 1.2 km/h (1 Bft)
21.06.2008 02:00 15.6 C 85 % 1020.0 hPa 0.0 l/m 0.0 km/h (0 Bft) O-SO 0.00 h 0 W/m 13.1 C 15.6 C 0.3 km/h (0 Bft)
21.06.2008 03:00 14.9 C 87 % 1020.1 hPa 0.0 l/m 0.2 km/h (0 Bft) O-SO 0.00 h 0 W/m 12.7 C 14.9 C 0.5 km/h (0 Bft)
21.06.2008 04:00 14.1 C 90 % 1020.2 hPa 0.0 l/m 0.4 km/h (0 Bft) O-SO 0.00 h 0 W/m 12.5 C 14.1 C 1.1 km/h (1 Bft)
21.06.2008 05:00 13.6 C 91 % 1020.2 hPa 0.0 l/m 0.1 km/h (0 Bft) O-SO 0.00 h 8 W/m 12.2 C 13.6 C 0.7 km/h (0 Bft)
21.06.2008 06:00 13.6 C 93 % 1020.6 hPa 0.0 l/m 0.0 km/h (0 Bft) N 0.08 h 41 W/m 12.5 C 13.6 C 0.1 km/h (0 Bft)
21.06.2008 07:00 15.5 C 86 % 1020.9 hPa 0.0 l/m 0.1 km/h (0 Bft) O 0.90 h 197 W/m 13.1 C 15.5 C 0.4 km/h (0 Bft)
21.06.2008 08:00 18.0 C 77 % 1020.7 hPa 0.0 l/m 0.4 km/h (0 Bft) O 1.00 h 362 W/m 13.8 C 18.0 C 1.5 km/h (1 Bft)
21.06.2008 09:00 20.5 C 70 % 1020.6 hPa 0.0 l/m 0.5 km/h (0 Bft) N-NW 1.00 h 523 W/m 14.8 C 20.5 C 1.9 km/h (1 Bft)
21.06.2008 10:00 23.1 C 61 % 1020.4 hPa 0.0 l/m 1.2 km/h (1 Bft) O-SO 1.00 h 668 W/m 15.3 C 23.1 C 3.1 km/h (1 Bft)
21.06.2008 11:00 25.1 C 53 % 1020.0 hPa 0.0 l/m 1.6 km/h (1 Bft) S-SO 1.00 h 779 W/m 14.9 C 25.1 C 3.9 km/h (1 Bft)
21.06.2008 12:00 26.3 C 50 % 1019.7 hPa 0.0 l/m 2.5 km/h (1 Bft) W 1.00 h 846 W/m 14.9 C 26.3 C 5.0 km/h (1 Bft)
21.06.2008 13:00 27.8 C 47 % 1019.3 hPa 0.0 l/m 2.9 km/h (1 Bft) W 1.00 h 875 W/m 15.3 C 27.8 C 5.7 km/h (1 Bft)
21.06.2008 14:00 29.0 C 42 % 1018.7 hPa 0.0 l/m 4.9 km/h (1 Bft) W-NW 1.00 h 852 W/m 14.8 C 29.0 C 8.4 km/h (2 Bft)
21.06.2008 15:00 29.7 C 41 % 1018.3 hPa 0.0 l/m 6.2 km/h (2 Bft) W 1.00 h 780 W/m 14.8 C 29.7 C 10.3 km/h (2 Bft)
21.06.2008 16:00 30.5 C 40 % 1017.9 hPa 0.0 l/m 4.4 km/h (1 Bft) W 1.00 h 670 W/m 15.3 C 30.5 C 7.6 km/h (2 Bft)
21.06.2008 17:00 30.5 C 40 % 1017.6 hPa 0.0 l/m 4.7 km/h (1 Bft) W-SW 1.00 h 534 W/m 15.3 C 30.5 C 7.6 km/h (2 Bft)
21.06.2008 18:00 30.0 C 41 % 1017.2 hPa 0.0 l/m 3.0 km/h (1 Bft) W 1.00 h 370 W/m 15.3 C 30.0 C 5.1 km/h (1 Bft)
21.06.2008 19:00 29.3 C 44 % 1017.1 hPa 0.0 l/m 2.5 km/h (1 Bft) W 1.00 h 207 W/m 15.7 C 29.3 C 4.6 km/h (1 Bft)
21.06.2008 20:00 27.1 C 54 % 1017.1 hPa 0.0 l/m 0.5 km/h (0 Bft) W 0.48 h 72 W/m 17.0 C 27.1 C 1.4 km/h (1 Bft)
21.06.2008 21:00 23.4 C 70 % 1017.3 hPa 0.0 l/m 4.1 km/h (1 Bft) O-SO 0.03 h 10 W/m 17.5 C 23.4 C 5.4 km/h (1 Bft)
21.06.2008 22:00 21.2 C 76 % 1017.8 hPa 0.0 l/m 2.7 km/h (1 Bft) O-SO 0.00 h 0 W/m 16.7 C 21.2 C 4.0 km/h (1 Bft)
21.06.2008 23:00 20.1 C 79 % 1017.9 hPa 0.0 l/m 0.7 km/h (0 Bft) O-SO 0.00 h 0 W/m 16.3 C 20.1 C 1.6 km/h (1 Bft)
22.06.2008 00:00 18.7 C 84 % 1018.0 hPa 0.0 l/m 1.4 km/h (1 Bft) O-SO 0.00 h 0 W/m 15.8 C 18.7 C 2.7 km/h (1 Bft)
22.06.2008 01:00 17.8 C 86 % 1017.8 hPa 0.0 l/m 0.7 km/h (0 Bft) O-SO 0.00 h 0 W/m 15.5 C 17.8 C 1.7 km/h (1 Bft)
22.06.2008 02:00 17.0 C 88 % 1017.8 hPa 0.0 l/m 0.6 km/h (0 Bft) O-SO 0.00 h 0 W/m 15.1 C 17.0 C 1.6 km/h (1 Bft)
22.06.2008 03:00 16.4 C 90 % 1017.7 hPa 0.0 l/m 1.6 km/h (1 Bft) O-SO 0.00 h 0 W/m 14.7 C 16.4 C 2.9 km/h (1 Bft)
22.06.2008 04:00 15.5 C 92 % 1017.3 hPa 0.0 l/m 0.8 km/h (0 Bft) O-SO 0.00 h 0 W/m 14.3 C 15.5 C 1.8 km/h (1 Bft)
22.06.2008 05:00 15.0 C 94 % 1017.3 hPa 0.0 l/m 0.2 km/h (0 Bft) O-SO 0.00 h 9 W/m 14.0 C 15.0 C 0.9 km/h (0 Bft)
22.06.2008 06:00 14.9 C 95 % 1017.6 hPa 0.0 l/m 0.0 km/h (0 Bft) N 0.17 h 40 W/m 14.2 C 14.9 C 0.1 km/h (0 Bft)
22.06.2008 07:00 17.1 C 88 % 1017.9 hPa 0.0 l/m 0.0 km/h (0 Bft) N 1.00 h 203 W/m 15.0 C 17.1 C 0.2 km/h (0 Bft)
22.06.2008 08:00 20.1 C 80 % 1017.9 hPa 0.0 l/m 1.0 km/h (0 Bft) O-SO 1.00 h 360 W/m 16.4 C 20.1 C 2.5 km/h (1 Bft)
22.06.2008 09:00 23.4 C 71 % 1017.7 hPa 0.0 l/m 1.9 km/h (1 Bft) O-SO 1.00 h 522 W/m 17.7 C 23.4 C 4.6 km/h (1 Bft)
22.06.2008 10:00 26.0 C 60 % 1017.5 hPa 0.0 l/m 4.7 km/h (1 Bft) S-SO 1.00 h 665 W/m 17.5 C 26.0 C 8.9 km/h (2 Bft)
22.06.2008 11:00 28.0 C 55 % 1017.2 hPa 0.0 l/m 3.4 km/h (1 Bft) S-SO 1.00 h 779 W/m 18.0 C 28.0 C 6.9 km/h (2 Bft)
22.06.2008 12:00 29.5 C 49 % 1016.9 hPa 0.0 l/m 3.5 km/h (1 Bft) SO 1.00 h 860 W/m 17.5 C 29.5 C 7.0 km/h (2 Bft)
22.06.2008 13:00 30.9 C 43 % 1016.2 hPa 0.0 l/m 3.6 km/h (1 Bft) SO 1.00 h 809 W/m 16.8 C 30.9 C 7.0 km/h (2 Bft)
22.06.2008 14:00 29.1 C 48 % 1016.0 hPa 0.0 l/m 1.2 km/h (1 Bft) SO 0.05 h 171 W/m 17.0 C 29.1 C 2.9 km/h (1 Bft)
22.06.2008 15:00 28.2 C 55 % 1016.1 hPa 0.0 l/m 3.8 km/h (1 Bft) W 0.50 h 446 W/m 18.3 C 28.2 C 7.2 km/h (2 Bft)
22.06.2008 16:00 31.2 C 50 % 1015.6 hPa 0.0 l/m 7.1 km/h (2 Bft) W 1.00 h 660 W/m 19.3 C 31.2 C 11.0 km/h (2 Bft)
22.06.2008 17:00 31.6 C 46 % 1015.2 hPa 0.0 l/m 3.2 km/h (1 Bft) W 1.00 h 524 W/m 18.6 C 31.6 C 5.7 km/h (1 Bft)
22.06.2008 18:00 31.8 C 42 % 1014.6 hPa 0.0 l/m 3.3 km/h (1 Bft) W 1.00 h 371 W/m 17.2 C 31.8 C 5.6 km/h (1 Bft)
22.06.2008 19:00 30.1 C 48 % 1014.3 hPa 0.0 l/m 2.1 km/h (1 Bft) W-SW 0.65 h 186 W/m 17.9 C 30.1 C 4.0 km/h (1 Bft)
22.06.2008 20:00 28.4 C 57 % 1014.3 hPa 0.0 l/m 2.0 km/h (1 Bft) W-NW 0.33 h 69 W/m 19.0 C 28.4 C 3.5 km/h (1 Bft)
22.06.2008 21:00 25.2 C 70 % 1014.4 hPa 0.0 l/m 2.6 km/h (1 Bft) O-SO 0.00 h 6 W/m 19.3 C 25.2 C 4.0 km/h (1 Bft)
22.06.2008 22:00 23.1 C 77 % 1015.0 hPa 0.0 l/m 2.3 km/h (1 Bft) O-SO 0.00 h 0 W/m 18.9 C 23.1 C 3.6 km/h (1 Bft)
22.06.2008 23:00 21.9 C 81 % 1015.1 hPa 0.0 l/m 1.7 km/h (1 Bft) O-SO 0.00 h 0 W/m 18.5 C 21.9 C 2.8 km/h (1 Bft)
Min-Datum _ 16.06.08 18.06.08 16.06.08 - 16.06.08 - - - 18.06.08 16.06.08 16.06.08
_ Min-Zeit 04:00 18:29 17:45 - 00:03 - - - 18:29 03:55 00:09
Minimum _ 10.2 C 35 % 1008.9 hPa - 0.0 km/h (0 Bft) - - - 8.5 C 10.3 C 0.0 km/h (0 Bft)
Max-Datum _ 22.06.08 16.06.08 21.06.08 17.06.08 19.06.08 - 16.06.08 20.06.08 22.06.08 22.06.08 19.06.08
_ Max-Zeit 18:07 07:48 07:15 17:03 16:41 - 11:37 14:12 16:56 18:06 16:41
Maximum _ 32.3 C 100 % 1021.0 hPa 2.2 l/m 26.1 km/h
W (4 Bft)
- 0.02 h 1088 W/m 20.7 C 32.3 C 34.8 km/h
W-NW (5 Bft)
Durchschnitt _ 18.8 C 75 % 1015.2 hPa #6.4 l/m 2.4 km/h (1 Bft) W #59:42 h 357 W/m 13.5 C 18.8 C 4.4 km/h (1 Bft)
© Kaiko 2008